createdAt,value
2018-09-12T00:01:14.616Z,76.90
2018-09-12T00:03:42.284Z,76.90
2018-09-12T00:06:09.967Z,76.90
2018-09-12T00:08:37.628Z,76.80
2018-09-12T00:11:05.310Z,76.70
2018-09-12T00:13:33.861Z,76.80
2018-09-12T00:16:01.589Z,77.60
2018-09-12T00:18:29.265Z,76.80
2018-09-12T00:20:56.995Z,76.90
2018-09-12T00:23:24.648Z,77.00
2018-09-12T00:25:53.529Z,76.90
2018-09-12T00:28:22.776Z,76.40
2018-09-12T00:30:53.087Z,77.50
2018-09-12T00:33:22.379Z,76.90
2018-09-12T00:35:50.663Z,77.00
2018-09-12T00:38:18.418Z,77.00
2018-09-12T00:40:46.991Z,76.90
2018-09-12T00:43:14.712Z,77.00
2018-09-12T00:45:42.399Z,77.00
2018-09-12T00:48:10.081Z,76.80
2018-09-12T00:50:38.878Z,76.80
2018-09-12T00:53:06.548Z,76.80
2018-09-12T00:55:35.264Z,77.00
2018-09-12T00:58:03.845Z,77.00
2018-09-12T01:00:31.583Z,77.00
2018-09-12T01:02:59.337Z,77.00
2018-09-12T01:05:27.016Z,77.50
2018-09-12T01:07:55.856Z,76.90
2018-09-12T01:10:23.629Z,76.90
2018-09-12T01:12:52.740Z,77.10
2018-09-12T01:15:20.576Z,76.90
2018-09-12T01:17:49.161Z,77.00
2018-09-12T01:20:17.735Z,77.00
2018-09-12T01:22:45.431Z,77.00
2018-09-12T01:25:13.110Z,76.90
2018-09-12T01:27:41.861Z,76.70
2018-09-12T01:30:14.897Z,77.10
2018-09-12T01:32:42.584Z,76.90
2018-09-12T01:35:11.148Z,77.10
2018-09-12T01:37:38.883Z,77.10
2018-09-12T01:40:06.565Z,77.00
2018-09-12T01:42:34.304Z,77.00
2018-09-12T01:45:01.980Z,77.00
2018-09-12T01:47:30.559Z,77.00
2018-09-12T01:49:59.147Z,77.00
2018-09-12T01:52:27.713Z,77.00
2018-09-12T01:54:56.476Z,77.00
2018-09-12T01:57:25.163Z,77.00
2018-09-12T01:59:53.408Z,76.90
2018-09-12T02:02:23.131Z,76.90
2018-09-12T02:04:52.337Z,76.90
2018-09-12T02:07:20.574Z,76.90
2018-09-12T02:09:48.254Z,76.90
2018-09-12T02:12:16.820Z,77.00
2018-09-12T02:14:44.504Z,77.00
2018-09-12T02:17:12.175Z,77.00
2018-09-12T02:19:39.851Z,77.00
2018-09-12T02:22:07.564Z,76.90
2018-09-12T02:24:35.256Z,77.10
2018-09-12T02:27:03.952Z,77.00
2018-09-12T02:29:32.628Z,76.80
2018-09-12T02:32:00.309Z,76.90
2018-09-12T02:34:27.993Z,76.90
2018-09-12T02:36:55.684Z,76.80
2018-09-12T02:39:23.356Z,76.70
2018-09-12T02:41:54.183Z,76.70
2018-09-12T02:44:23.603Z,76.80
2018-09-12T02:46:52.970Z,76.60
2018-09-12T02:49:22.129Z,76.90
2018-09-12T02:51:52.465Z,76.90
2018-09-12T02:54:22.727Z,77.60
2018-09-12T02:56:53.749Z,76.90
2018-09-12T02:59:23.011Z,76.90
2018-09-12T03:01:53.304Z,76.80
2018-09-12T03:04:22.400Z,76.70
2018-09-12T03:06:52.387Z,76.60
2018-09-12T03:09:22.068Z,76.70
2018-09-12T03:11:51.664Z,76.60
2018-09-12T03:14:19.432Z,76.60
2018-09-12T03:16:48.219Z,76.30
2018-09-12T03:19:15.896Z,76.20
2018-09-12T03:21:44.063Z,76.30
2018-09-12T03:24:11.737Z,76.40
2018-09-12T03:26:39.459Z,76.30
2018-09-12T03:29:08.029Z,76.40
2018-09-12T03:31:35.732Z,76.30
2018-09-12T03:34:04.409Z,76.40
2018-09-12T03:36:33.241Z,76.30
2018-09-12T03:39:01.921Z,76.50
2018-09-12T03:41:29.633Z,76.60
2018-09-12T03:43:58.301Z,76.50
2018-09-12T03:46:26.864Z,76.50
2018-09-12T03:48:56.880Z,76.50
2018-09-12T03:51:25.569Z,76.60
2018-09-12T03:53:54.080Z,76.50
2018-09-12T03:56:23.425Z,76.50
2018-09-12T03:58:52.998Z,76.50
2018-09-12T04:01:23.404Z,76.60
2018-09-12T04:03:52.901Z,76.50
2018-09-12T04:06:24.033Z,76.60
2018-09-12T04:08:54.068Z,76.60
2018-09-12T04:11:25.440Z,76.50
2018-09-12T04:13:55.156Z,76.40
2018-09-12T04:16:24.499Z,76.20
2018-09-12T04:18:53.176Z,76.10
2018-09-12T04:21:23.688Z,75.80
2018-09-12T04:23:53.030Z,75.80
2018-09-12T04:26:21.628Z,75.70
2018-09-12T04:28:51.412Z,75.90
2018-09-12T04:31:19.289Z,76.00
2018-09-12T04:33:47.005Z,75.80
2018-09-12T04:36:14.681Z,75.70
2018-09-12T04:38:42.408Z,75.70
2018-09-12T04:41:10.081Z,75.80
2018-09-12T04:43:38.708Z,75.70
2018-09-12T04:46:06.397Z,75.40
2018-09-12T04:48:35.249Z,75.70
2018-09-12T04:51:02.854Z,76.80
2018-09-12T04:53:31.572Z,75.90
2018-09-12T04:56:00.384Z,75.80
2018-09-12T04:58:29.011Z,75.40
2018-09-12T05:00:57.645Z,74.90
2018-09-12T05:03:25.388Z,74.70
2018-09-12T05:05:54.153Z,74.40
2018-09-12T05:08:23.488Z,74.20
2018-09-12T05:10:53.274Z,73.90
2018-09-12T05:13:21.461Z,73.70
2018-09-12T05:15:49.221Z,73.60
2018-09-12T05:18:16.988Z,73.60
2018-09-12T05:20:45.540Z,73.50
2018-09-12T05:23:13.238Z,73.50
2018-09-12T05:25:40.915Z,73.40
2018-09-12T05:28:08.583Z,73.30
2018-09-12T05:30:36.268Z,73.40
2018-09-12T05:33:03.941Z,73.30
2018-09-12T05:35:31.615Z,73.40
2018-09-12T05:37:59.343Z,73.40
2018-09-12T05:40:27.911Z,73.40
2018-09-12T05:42:55.576Z,73.50
2018-09-12T05:45:24.085Z,73.50
2018-09-12T05:47:53.449Z,73.50
2018-09-12T05:50:23.620Z,73.50
2018-09-12T05:52:53.172Z,73.50
2018-09-12T05:55:21.699Z,73.50
2018-09-12T05:57:51.620Z,73.50
2018-09-12T06:00:24.460Z,73.50
2018-09-12T06:02:54.551Z,73.50
2018-09-12T06:05:23.173Z,73.50
2018-09-12T06:07:53.542Z,73.60
2018-09-12T06:10:23.005Z,73.70
2018-09-12T06:12:51.971Z,73.80
2018-09-12T06:15:21.965Z,73.70
2018-09-12T06:17:49.630Z,73.60
2018-09-12T06:20:17.343Z,73.60
2018-09-12T06:22:45.024Z,73.70
2018-09-12T06:25:12.717Z,73.70
2018-09-12T06:27:41.316Z,73.60
2018-09-12T06:30:09.028Z,73.70
2018-09-12T06:32:36.717Z,73.80
2018-09-12T06:35:04.411Z,73.90
2018-09-12T06:37:32.204Z,73.90
2018-09-12T06:39:59.896Z,74.00
2018-09-12T06:42:27.560Z,74.30
2018-09-12T06:44:55.297Z,74.30
2018-09-12T06:47:25.435Z,74.40
2018-09-12T06:49:54.024Z,74.50
2018-09-12T06:52:24.756Z,74.70
2018-09-12T06:54:53.715Z,74.20
2018-09-12T06:57:21.422Z,74.80
2018-09-12T06:59:49.096Z,74.70
2018-09-12T07:02:16.775Z,74.80
2018-09-12T07:04:44.441Z,74.70
2018-09-12T07:07:12.105Z,74.50
2018-09-12T07:09:39.788Z,75.00
2018-09-12T07:12:08.476Z,75.00
2018-09-12T07:14:36.375Z,74.90
2018-09-12T07:17:04.977Z,74.90
2018-09-12T07:19:33.540Z,75.00
2018-09-12T07:22:01.229Z,75.10
2018-09-12T07:24:30.009Z,75.40
2018-09-12T07:26:58.564Z,75.20
2018-09-12T07:29:27.115Z,75.20
2018-09-12T07:31:54.905Z,75.10
2018-09-12T07:34:23.748Z,75.20
2018-09-12T07:36:53.241Z,75.10
2018-09-12T07:39:21.716Z,75.40
2018-09-12T07:41:51.438Z,75.40
2018-09-12T07:44:19.116Z,75.40
2018-09-12T07:46:47.784Z,75.40
2018-09-12T07:49:15.489Z,75.40
2018-09-12T07:51:44.171Z,74.90
2018-09-12T07:54:11.841Z,75.50
2018-09-12T07:56:40.534Z,75.40
2018-09-12T07:59:08.240Z,75.40
2018-09-12T08:01:36.912Z,75.50
2018-09-12T08:04:04.588Z,75.40
2018-09-12T08:06:32.265Z,75.30
2018-09-12T08:08:59.941Z,75.10
2018-09-12T08:11:27.619Z,75.00
2018-09-12T08:13:55.471Z,75.30
2018-09-12T08:16:23.867Z,75.10
2018-09-12T08:18:53.946Z,75.20
2018-09-12T08:21:23.009Z,75.10
2018-09-12T08:23:53.880Z,75.10
2018-09-12T08:26:24.007Z,75.10
2018-09-12T08:28:53.177Z,75.10
2018-09-12T08:31:21.595Z,75.20
2018-09-12T08:33:49.494Z,75.10
2018-09-12T08:36:18.198Z,75.10
2018-09-12T08:38:45.895Z,75.10
2018-09-12T08:41:13.609Z,75.10
2018-09-12T08:43:41.291Z,75.20
2018-09-12T08:46:08.993Z,75.10
2018-09-12T08:48:36.665Z,75.10
2018-09-12T08:51:04.349Z,75.40
2018-09-12T08:53:33.041Z,75.40
2018-09-12T08:56:00.746Z,75.40
2018-09-12T08:58:28.988Z,75.30
2018-09-12T09:00:57.566Z,75.40
2018-09-12T09:03:26.184Z,75.20
2018-09-12T09:05:57.558Z,75.60
2018-09-12T09:08:26.452Z,75.60
2018-09-12T09:10:55.227Z,75.60
2018-09-12T09:13:24.136Z,75.40
2018-09-12T09:15:54.678Z,75.50
2018-09-12T09:18:23.611Z,75.40
2018-09-12T09:20:53.045Z,75.40
2018-09-12T09:23:21.174Z,75.50
2018-09-12T09:25:48.906Z,75.50
2018-09-12T09:28:16.584Z,75.60
2018-09-12T09:30:44.257Z,75.70
2018-09-12T09:33:11.953Z,75.80
2018-09-12T09:35:39.807Z,75.70
2018-09-12T09:38:07.342Z,75.80
2018-09-12T09:40:35.016Z,75.70
2018-09-12T09:43:02.684Z,75.80
2018-09-12T09:45:30.395Z,75.80
2018-09-12T09:47:58.090Z,75.50
2018-09-12T09:50:25.773Z,75.80
2018-09-12T09:52:54.518Z,75.60
2018-09-12T09:55:24.014Z,75.80
2018-09-12T09:57:53.769Z,75.70
2018-09-12T10:00:26.998Z,75.70
2018-09-12T10:03:00.252Z,75.80
2018-09-12T10:05:33.323Z,75.90
2018-09-12T10:08:06.488Z,75.70
2018-09-12T10:10:34.180Z,75.80
2018-09-12T10:13:02.869Z,75.90
2018-09-12T10:15:31.570Z,75.90
2018-09-12T10:18:00.097Z,75.80
2018-09-12T10:20:28.824Z,75.80
2018-09-12T10:22:57.554Z,75.90
2018-09-12T10:25:26.145Z,75.80
2018-09-12T10:27:55.159Z,75.90
2018-09-12T10:30:24.896Z,75.90
2018-09-12T10:32:53.952Z,76.10
2018-09-12T10:35:22.565Z,76.10
2018-09-12T10:37:51.764Z,76.00
2018-09-12T10:40:20.801Z,76.30
2018-09-12T10:42:48.474Z,76.20
2018-09-12T10:45:17.093Z,76.20
2018-09-12T10:47:45.795Z,76.00
2018-09-12T10:50:14.484Z,76.20
2018-09-12T10:52:43.159Z,75.90
2018-09-12T10:55:11.864Z,76.20
2018-09-12T10:57:39.529Z,76.20
2018-09-12T11:00:07.337Z,76.20
2018-09-12T11:02:36.056Z,76.20
2018-09-12T11:05:04.955Z,76.30
2018-09-12T11:07:33.674Z,76.30
2018-09-12T11:10:01.891Z,76.30
2018-09-12T11:12:29.580Z,76.60
2018-09-12T11:14:57.305Z,76.60
2018-09-12T11:17:25.036Z,76.20
2018-09-12T11:19:54.371Z,76.30
2018-09-12T11:22:23.707Z,76.40
2018-09-12T11:24:53.772Z,76.20
2018-09-12T11:27:22.528Z,76.10
2018-09-12T11:29:51.927Z,76.20
2018-09-12T11:32:19.669Z,76.20
2018-09-12T11:34:47.403Z,76.30
2018-09-12T11:37:16.089Z,76.20
2018-09-12T11:39:44.825Z,76.40
2018-09-12T11:42:12.497Z,76.60
2018-09-12T11:44:40.226Z,76.60
2018-09-12T11:47:08.812Z,76.50
2018-09-12T11:49:37.505Z,76.60
2018-09-12T11:52:06.187Z,76.60
2018-09-12T11:54:33.856Z,76.40
2018-09-12T11:57:02.608Z,76.60
2018-09-12T11:59:31.281Z,76.40
2018-09-12T12:02:00.145Z,76.40
2018-09-12T12:04:28.848Z,76.60
2018-09-12T12:06:56.793Z,77.10
2018-09-12T12:09:25.328Z,76.40
2018-09-12T12:11:54.798Z,76.70
2018-09-12T12:14:24.016Z,76.80
2018-09-12T12:16:54.366Z,76.50
2018-09-12T12:19:23.675Z,76.60
2018-09-12T12:21:53.516Z,75.80
2018-09-12T12:24:21.740Z,75.00
2018-09-12T12:26:49.477Z,74.50
2018-09-12T12:29:18.297Z,74.50
2018-09-12T12:31:45.985Z,74.50
2018-09-12T12:34:13.665Z,73.80
2018-09-12T12:36:42.360Z,74.10
2018-09-12T12:39:11.139Z,74.50
2018-09-12T12:41:39.717Z,73.90
2018-09-12T12:44:07.408Z,74.10
2018-09-12T12:46:35.967Z,74.20
2018-09-12T12:49:03.680Z,74.30
2018-09-12T12:51:32.274Z,74.10
2018-09-12T12:54:00.337Z,74.10
2018-09-12T12:56:28.116Z,74.30
2018-09-12T12:58:56.733Z,74.30
2018-09-12T13:01:26.182Z,74.40
2018-09-12T13:03:54.884Z,74.30
2018-09-12T13:06:24.088Z,74.40
2018-09-12T13:08:53.760Z,74.40
2018-09-12T13:11:23.945Z,74.40
2018-09-12T13:13:53.993Z,74.30
2018-09-12T13:16:23.456Z,74.20
2018-09-12T13:18:52.013Z,74.20
2018-09-12T13:21:19.773Z,74.30
2018-09-12T13:23:48.491Z,74.30
2018-09-12T13:26:16.171Z,74.30
2018-09-12T13:28:44.724Z,74.50
2018-09-12T13:31:13.408Z,74.50
2018-09-12T13:33:41.126Z,74.50
2018-09-12T13:36:09.689Z,74.50
2018-09-12T13:38:37.368Z,74.90
2018-09-12T13:41:05.059Z,74.60
2018-09-12T13:43:32.757Z,74.50
2018-09-12T13:46:00.446Z,74.60
2018-09-12T13:48:28.131Z,74.60
2018-09-12T13:50:55.811Z,74.60
2018-09-12T13:53:24.600Z,74.60
2018-09-12T13:55:54.192Z,74.70
2018-09-12T13:58:25.221Z,74.60
2018-09-12T14:00:53.415Z,74.40
2018-09-12T14:03:22.091Z,74.40
2018-09-12T14:05:51.459Z,74.40
2018-09-12T14:08:19.127Z,74.60
2018-09-12T14:10:47.921Z,74.60
2018-09-12T14:13:15.598Z,74.50
2018-09-12T14:15:43.280Z,74.60
2018-09-12T14:18:10.948Z,74.60
2018-09-12T14:20:38.628Z,74.70
2018-09-12T14:23:06.367Z,74.80
2018-09-12T14:25:34.056Z,74.80
2018-09-12T14:28:01.727Z,74.60
2018-09-12T14:30:29.408Z,74.60
2018-09-12T14:32:57.202Z,74.70
2018-09-12T14:35:25.372Z,74.60
2018-09-12T14:37:54.369Z,74.60
2018-09-12T14:40:23.739Z,74.70
2018-09-12T14:42:51.470Z,74.60
2018-09-12T14:45:20.160Z,74.70
2018-09-12T14:47:48.852Z,74.60
2018-09-12T14:50:16.513Z,74.70
2018-09-12T14:52:44.204Z,74.90
2018-09-12T14:55:11.883Z,74.90
2018-09-12T14:57:39.615Z,75.40
2018-09-12T15:00:07.464Z,74.30
2018-09-12T15:02:35.146Z,73.80
2018-09-12T15:05:03.095Z,73.70
2018-09-12T15:07:31.684Z,73.80
2018-09-12T15:10:00.440Z,73.60
2018-09-12T15:12:28.128Z,73.40
2018-09-12T15:14:55.940Z,73.30
2018-09-12T15:17:24.623Z,73.30
2018-09-12T15:19:53.496Z,73.30
2018-09-12T15:22:24.175Z,73.40
2018-09-12T15:24:54.059Z,73.40
2018-09-12T15:27:23.651Z,73.30
2018-09-12T15:29:53.789Z,73.60
2018-09-12T15:32:23.234Z,73.30
2018-09-12T15:34:54.039Z,73.50
2018-09-12T15:37:23.429Z,73.70
2018-09-12T15:39:53.964Z,73.50
2018-09-12T15:42:24.885Z,73.30
2018-09-12T15:44:54.693Z,73.70
2018-09-12T15:47:23.513Z,73.60
2018-09-12T15:49:54.062Z,73.10
2018-09-12T15:52:23.709Z,73.80
2018-09-12T15:54:52.480Z,73.70
2018-09-12T15:57:21.400Z,73.70
2018-09-12T15:59:50.117Z,73.60
2018-09-12T16:02:18.870Z,73.40
2018-09-12T16:04:47.576Z,73.30
2018-09-12T16:07:15.304Z,73.80
2018-09-12T16:09:44.016Z,73.90
2018-09-12T16:12:12.731Z,73.90
2018-09-12T16:14:44.167Z,73.80
2018-09-12T16:17:12.581Z,74.50
2018-09-12T16:19:41.131Z,74.60
2018-09-12T16:22:09.828Z,74.80
2018-09-12T16:24:37.507Z,75.00
2018-09-12T16:27:05.876Z,75.20
2018-09-12T16:29:34.664Z,75.20
2018-09-12T16:32:02.356Z,76.00
2018-09-12T16:34:30.099Z,75.40
2018-09-12T16:36:57.775Z,75.50
2018-09-12T16:39:26.385Z,75.60
2018-09-12T16:41:55.144Z,75.70
2018-09-12T16:44:23.583Z,75.80
2018-09-12T16:46:54.422Z,75.80
2018-09-12T16:49:24.061Z,75.80
2018-09-12T16:51:53.872Z,76.00
2018-09-12T16:54:22.023Z,76.00
2018-09-12T16:56:51.846Z,76.00
2018-09-12T16:59:19.581Z,76.00
2018-09-12T17:01:49.583Z,75.80
2018-09-12T17:04:17.507Z,75.80
2018-09-12T17:06:45.222Z,75.90
2018-09-12T17:09:13.914Z,75.90
2018-09-12T17:11:42.675Z,75.80
2018-09-12T17:14:10.394Z,75.90
2018-09-12T17:16:38.112Z,76.00
2018-09-12T17:19:05.846Z,76.00
2018-09-12T17:21:33.523Z,76.00
2018-09-12T17:24:01.451Z,76.20
2018-09-12T17:26:30.176Z,75.90
2018-09-12T17:28:57.845Z,76.00
2018-09-12T17:31:25.529Z,76.00
2018-09-12T17:33:54.675Z,76.10
2018-09-12T17:36:26.726Z,76.20
2018-09-12T17:38:54.533Z,76.10
2018-09-12T17:41:23.984Z,76.20
2018-09-12T17:43:53.864Z,76.30
2018-09-12T17:46:24.086Z,76.20
2018-09-12T17:48:53.549Z,76.30
2018-09-12T17:51:24.507Z,76.50
2018-09-12T17:53:54.090Z,76.40
2018-09-12T17:56:25.682Z,76.40
2018-09-12T17:58:55.281Z,76.40
2018-09-12T18:01:24.384Z,76.40
2018-09-12T18:03:54.498Z,76.40
2018-09-12T18:06:24.453Z,76.60
2018-09-12T18:08:54.353Z,76.50
2018-09-12T18:11:23.993Z,76.50
2018-09-12T18:13:54.289Z,76.40
2018-09-12T18:16:23.739Z,76.60
2018-09-12T18:18:52.107Z,76.40
2018-09-12T18:21:19.843Z,76.50
2018-09-12T18:23:47.664Z,76.70
2018-09-12T18:26:15.347Z,76.60
2018-09-12T18:28:43.401Z,76.60
2018-09-12T18:31:12.126Z,76.70
2018-09-12T18:33:40.913Z,76.70
2018-09-12T18:36:08.618Z,76.60
2018-09-12T18:38:37.213Z,76.70
2018-09-12T18:41:04.883Z,76.80
2018-09-12T18:43:32.611Z,76.80
2018-09-12T18:46:00.286Z,76.80
2018-09-12T18:48:27.979Z,76.60
2018-09-12T18:50:55.695Z,76.90
2018-09-12T18:53:25.833Z,76.70
2018-09-12T18:55:56.844Z,76.90
2018-09-12T18:58:25.596Z,76.70
2018-09-12T19:00:55.169Z,76.70
2018-09-12T19:03:23.763Z,76.80
2018-09-12T19:05:52.039Z,77.00
2018-09-12T19:08:19.976Z,77.00
2018-09-12T19:10:47.662Z,76.90
2018-09-12T19:13:15.428Z,77.00
2018-09-12T19:15:43.100Z,77.10
2018-09-12T19:18:10.798Z,77.10
2018-09-12T19:20:38.533Z,76.90
2018-09-12T19:23:06.199Z,77.00
2018-09-12T19:25:33.879Z,77.30
2018-09-12T19:28:01.574Z,77.10
2018-09-12T19:30:29.250Z,77.10
2018-09-12T19:32:56.940Z,77.10
2018-09-12T19:35:25.440Z,77.00
2018-09-12T19:37:54.861Z,76.80
2018-09-12T19:40:24.883Z,77.10
2018-09-12T19:42:53.562Z,77.20
2018-09-12T19:45:23.757Z,77.00
2018-09-12T19:47:52.057Z,76.80
2018-09-12T19:50:19.784Z,77.10
2018-09-12T19:52:47.575Z,77.20
2018-09-12T19:55:15.280Z,77.40
2018-09-12T19:57:42.965Z,77.30
2018-09-12T20:00:12.529Z,77.20
2018-09-12T20:02:41.270Z,77.30
2018-09-12T20:05:08.952Z,77.40
2018-09-12T20:07:36.684Z,77.20
2018-09-12T20:10:04.388Z,77.20
2018-09-12T20:12:32.156Z,77.10
2018-09-12T20:14:59.848Z,77.10
2018-09-12T20:17:27.655Z,77.30
2018-09-12T20:19:55.508Z,77.20
2018-09-12T20:22:23.845Z,77.40
2018-09-12T20:24:52.041Z,77.40
2018-09-12T20:27:19.936Z,77.40
2018-09-12T20:29:47.958Z,77.10
2018-09-12T20:32:16.151Z,77.30
2018-09-12T20:34:44.083Z,77.10
2018-09-12T20:37:12.157Z,77.80
2018-09-12T20:39:39.924Z,77.30
2018-09-12T20:42:07.751Z,77.40
2018-09-12T20:44:35.471Z,77.20
2018-09-12T20:47:03.230Z,77.20
2018-09-12T20:49:30.896Z,77.40
2018-09-12T20:51:58.592Z,77.20
2018-09-12T20:54:27.157Z,77.30
2018-09-12T20:56:54.856Z,77.20
2018-09-12T20:59:23.425Z,77.40
2018-09-12T21:01:51.158Z,77.40
2018-09-12T21:04:18.823Z,77.10
2018-09-12T21:06:46.511Z,77.30
2018-09-12T21:09:14.801Z,77.20
2018-09-12T21:11:42.488Z,77.30
2018-09-12T21:14:10.524Z,77.30
2018-09-12T21:16:38.195Z,77.40
2018-09-12T21:19:06.452Z,77.20
2018-09-12T21:21:34.231Z,78.00
2018-09-12T21:24:01.910Z,77.20
2018-09-12T21:26:29.720Z,77.00
2018-09-12T21:28:58.665Z,77.20
2018-09-12T21:31:27.884Z,77.40
2018-09-12T21:33:56.182Z,77.50
2018-09-12T21:36:24.878Z,77.30
2018-09-12T21:38:53.895Z,77.10
2018-09-12T21:41:23.503Z,77.00
2018-09-12T21:43:51.196Z,77.80
2018-09-12T21:46:19.911Z,77.20
2018-09-12T21:48:47.591Z,77.10
2018-09-12T21:51:16.198Z,77.30
2018-09-12T21:53:44.769Z,77.20
2018-09-12T21:56:12.443Z,77.20
2018-09-12T21:58:40.113Z,77.10
2018-09-12T22:01:07.784Z,77.20
2018-09-12T22:03:35.505Z,77.20
2018-09-12T22:06:03.265Z,77.40
2018-09-12T22:08:30.952Z,77.40
2018-09-12T22:10:58.631Z,77.20
2018-09-12T22:13:27.592Z,77.30
2018-09-12T22:15:58.265Z,77.00
2018-09-12T22:18:27.202Z,77.00
2018-09-12T22:20:55.896Z,77.00
2018-09-12T22:23:24.239Z,77.00
2018-09-12T22:25:54.568Z,77.00
2018-09-12T22:28:24.117Z,77.30
2018-09-12T22:30:53.504Z,77.10
2018-09-12T22:33:21.446Z,77.10
2018-09-12T22:35:50.032Z,77.00
2018-09-12T22:38:18.376Z,76.80
2018-09-12T22:40:47.076Z,77.20
2018-09-12T22:43:15.755Z,77.10
2018-09-12T22:45:44.447Z,77.30
2018-09-12T22:48:12.135Z,77.20
2018-09-12T22:50:40.041Z,77.20
2018-09-12T22:53:07.828Z,77.30
2018-09-12T22:55:36.579Z,77.20
2018-09-12T22:58:04.271Z,77.30
2018-09-12T23:00:32.226Z,77.20
2018-09-12T23:03:00.792Z,77.00
2018-09-12T23:05:28.463Z,76.90
2018-09-12T23:07:57.145Z,77.20
2018-09-12T23:10:25.852Z,77.20
2018-09-12T23:12:54.272Z,76.80
2018-09-12T23:15:23.207Z,77.00
2018-09-12T23:17:51.103Z,76.80
2018-09-12T23:20:18.859Z,77.50
2018-09-12T23:22:46.594Z,77.20
2018-09-12T23:25:15.291Z,77.30
2018-09-12T23:27:42.967Z,77.40
2018-09-12T23:30:10.652Z,77.30
2018-09-12T23:32:38.344Z,78.00
2018-09-12T23:35:06.024Z,77.20
2018-09-12T23:37:33.716Z,77.30
2018-09-12T23:40:01.383Z,77.10
2018-09-12T23:42:29.971Z,77.10
2018-09-12T23:44:57.659Z,77.20
2018-09-12T23:47:25.341Z,76.90
2018-09-12T23:49:53.760Z,77.10
2018-09-12T23:52:23.987Z,77.10
2018-09-12T23:54:53.891Z,77.20
2018-09-12T23:57:23.420Z,77.20
2018-09-12T23:59:51.819Z,77.30
